Zefyros — SZHX — position and weather

sailwx.info

Track history (hours):
 
Tides and Currents Weather Stations Pressure Air Temp Water Temp Dewpoint Dewpoint Depression Visibility Wind Speed Wind Dir Waves Ship Positions

Zefyros

Last reported at 2017-Nov-18 09:04 UTC. Time now 2017-Nov-19 15:49 UTC.
Position N 37°14' E 024°48'.

Length 77 m; draft 4.5 m.

Type: Ship. MMSI: 240485000.

Date/timePositionNaut miles runAvg speedWind from/ knotsBaromVisibWave heightAir tempDewpointWater temp
2017-Nov-18 09:04N 37°14' E 024°48'111.1
2017-Nov-18 09:01N 37°14' E 024°49'510.8
2017-Nov-18 08:31N 37°18' E 024°53'611.2
2017-Nov-18 08:01N 37°22' E 024°58'4 7.5
2017-Nov-18 07:30N 37°26' E 024°56'0 0.2
2017-Nov-18 07:00N 37°26' E 024°56'0 0.0
2017-Nov-18 06:31N 37°26' E 024°56'0 0.0
2017-Nov-18 06:00N 37°26' E 024°56'0 0.0
2017-Nov-18 05:30N 37°26' E 024°56'0 0.0
2017-Nov-18 05:01N 37°26' E 024°56'0 0.0
2017-Nov-18 04:30N 37°26' E 024°56'0 0.0
2017-Nov-18 04:01N 37°26' E 024°56'0 0.0
2017-Nov-18 03:31N 37°26' E 024°56'0 0.0
2017-Nov-18 03:00N 37°26' E 024°56'0 0.0
2017-Nov-18 02:30N 37°26' E 024°56'0 0.0
2017-Nov-18 02:01N 37°26' E 024°56'0 0.0
2017-Nov-18 01:31N 37°26' E 024°56'0 0.0
2017-Nov-18 01:00N 37°26' E 024°56'0 0.0
2017-Nov-18 00:31N 37°26' E 024°56'0 0.0
2017-Nov-18 00:00N 37°26' E 024°56'0 0.0
2017-Nov-17 23:31N 37°26' E 024°56'0 0.0
2017-Nov-17 23:01N 37°26' E 024°56'0 0.0
2017-Nov-17 22:31N 37°26' E 024°56'0 0.0
2017-Nov-17 22:00N 37°26' E 024°56'0 0.0
2017-Nov-17 21:31N 37°26' E 024°56'0 0.0
2017-Nov-17 21:00N 37°26' E 024°56'0 0.0
2017-Nov-17 20:31N 37°26' E 024°56'0 0.0
2017-Nov-17 20:01N 37°26' E 024°56'0 0.0
2017-Nov-17 19:31N 37°26' E 024°56'0 0.0
2017-Nov-17 19:01N 37°26' E 024°56'0 0.0
2017-Nov-17 18:30N 37°26' E 024°56'0 0.0
2017-Nov-17 18:01N 37°26' E 024°56'0 0.0
2017-Nov-17 17:30N 37°26' E 024°56'0 0.0
2017-Nov-17 17:01N 37°26' E 024°56'0 0.0
2017-Nov-17 16:30N 37°26' E 024°56'0 0.0
2017-Nov-17 16:01N 37°26' E 024°56'0 0.0
2017-Nov-17 15:30N 37°26' E 024°56'0 0.0
2017-Nov-17 15:01N 37°26' E 024°56'0 0.0
2017-Nov-17 14:26N 37°26' E 024°56'0 0.0
2017-Nov-17 14:00N 37°26' E 024°56'0 0.0
2017-Nov-17 13:30N 37°26' E 024°56'0 0.0
2017-Nov-17 12:59N 37°26' E 024°56'0 0.0
2017-Nov-17 12:30N 37°26' E 024°56'3 6.3
2017-Nov-17 12:01N 37°29' E 024°58'510.2
2017-Nov-17 11:31N 37°34' E 024°55'510.8
2017-Nov-17 11:00N 37°38' E 024°52'83 4.4
2017-Nov-16 16:10N 38°55' E 024°09'3 9.8
2017-Nov-16 15:52N 38°57' E 024°07'32 1.4
2017-Nov-15 16:52N 39°27' E 023°54'410.6
2017-Nov-15 16:30N 39°30' E 023°59'510.7
2017-Nov-15 16:00N 39°33' E 024°04'510.9
2017-Nov-15 15:30N 39°35' E 024°10'2511.3
2017-Nov-15 13:17N 39°45' E 024°41'311.3
2017-Nov-15 13:00N 39°46' E 024°44'611.2
2017-Nov-15 12:26N 39°49' E 024°52'611.2
2017-Nov-15 11:55N 39°51' E 024°59'  
2017-Nov-11 00:21N 37°24' E 025°55'411.1
2017-Nov-11 00:00N 37°25' E 025°51'611.5
2017-Nov-10 23:30N 37°26' E 025°43'611.7
2017-Nov-10 23:00N 37°28' E 025°37'611.9
2017-Nov-10 22:30N 37°30' E 025°29'612.1
2017-Nov-10 22:00N 37°31' E 025°22'4 8.7
2017-Nov-10 21:31N 37°28' E 025°18'1 2.3
2017-Nov-10 21:00N 37°28' E 025°19'0 0.0
2017-Nov-10 20:30N 37°28' E 025°19'0 0.0
2017-Nov-10 20:00N 37°28' E 025°19'0 0.0
2017-Nov-10 19:30N 37°28' E 025°19'0 0.0
2017-Nov-10 19:00N 37°28' E 025°19'0 0.0
2017-Nov-10 18:30N 37°28' E 025°19'0 0.0
2017-Nov-10 18:00N 37°28' E 025°19'0 0.0
2017-Nov-10 17:30N 37°28' E 025°19'0 0.0
2017-Nov-10 17:00N 37°28' E 025°19'0 0.0
2017-Nov-10 16:30N 37°28' E 025°19'0 0.0
2017-Nov-10 16:00N 37°28' E 025°19'0 0.0
2017-Nov-10 15:30N 37°28' E 025°19'0 0.0
2017-Nov-10 15:00N 37°28' E 025°19'0 0.0
2017-Nov-10 14:30N 37°28' E 025°19'2 4.9
2017-Nov-10 14:00N 37°28' E 025°16'611.4
2017-Nov-10 13:30N 37°29' E 025°09'611.2
2017-Nov-10 13:00N 37°31' E 025°02'510.6
2017-Nov-10 12:30N 37°32' E 024°56'510.2
2017-Nov-10 12:00N 37°32' E 024°50'4410.7
2017-Nov-10 07:51N 37°36' E 023°54'411.2
2017-Nov-10 07:30N 37°37' E 023°49'611.0
2017-Nov-10 07:00N 37°40' E 023°43'510.8
2017-Nov-10 06:30N 37°44' E 023°39'611.2
2017-Nov-10 06:00N 37°49' E 023°36'611.0
2017-Nov-10 05:30N 37°50' E 023°29'611.2
2017-Nov-10 05:00N 37°52' E 023°22'611.3
2017-Nov-10 04:30N 37°53' E 023°15'611.3
2017-Nov-10 04:00N 37°54' E 023°08'3 5.3
2017-Nov-10 03:30N 37°55' E 023°05'0 0.0
2017-Nov-10 03:00N 37°55' E 023°05'0 0.0
2017-Nov-10 02:30N 37°55' E 023°05'0 0.0
2017-Nov-10 02:00N 37°55' E 023°05'0 0.0
2017-Nov-10 01:30N 37°55' E 023°05'0 0.0
2017-Nov-10 01:00N 37°55' E 023°05'0 0.0
2017-Nov-10 00:30N 37°55' E 023°05'0 0.0
2017-Nov-10 00:00N 37°55' E 023°05'0 0.0
2017-Nov-09 23:30N 37°55' E 023°05'0 0.0
2017-Nov-09 23:00N 37°55' E 023°05'0 0.0
2017-Nov-09 22:30N 37°55' E 023°05'0 0.0
2017-Nov-09 22:00N 37°55' E 023°05'0 0.0
2017-Nov-09 21:30N 37°55' E 023°05'0 0.0
2017-Nov-09 21:00N 37°55' E 023°05'0 0.0
2017-Nov-09 20:30N 37°55' E 023°05'0 0.0
2017-Nov-09 20:00N 37°55' E 023°05'0 0.0
2017-Nov-09 19:30N 37°55' E 023°05'0 0.0
2017-Nov-09 19:00N 37°55' E 023°05'0 0.0
2017-Nov-09 18:30N 37°55' E 023°05'0 0.0
2017-Nov-09 18:00N 37°55' E 023°05'0 0.0
2017-Nov-09 17:30N 37°55' E 023°05'0 0.0
2017-Nov-09 17:00N 37°55' E 023°05'0 0.0
2017-Nov-09 16:30N 37°55' E 023°05'0 0.0
2017-Nov-09 16:00N 37°55' E 023°05'0 0.0
2017-Nov-09 15:30N 37°55' E 023°05'0 0.0
2017-Nov-09 15:00N 37°55' E 023°05'0 0.0
2017-Nov-09 14:30N 37°55' E 023°05'0 0.0
2017-Nov-09 14:00N 37°55' E 023°05'0 0.0
2017-Nov-09 13:30N 37°55' E 023°05'0 0.0
2017-Nov-09 13:00N 37°55' E 023°05'0 0.0
2017-Nov-09 12:30N 37°55' E 023°05'0 0.0
2017-Nov-09 12:00N 37°55' E 023°05'0 0.0
2017-Nov-09 11:30N 37°55' E 023°05'0 0.0
2017-Nov-09 11:00N 37°55' E 023°05'0 0.0
2017-Nov-09 10:30N 37°55' E 023°05'0 0.0
2017-Nov-09 10:00N 37°55' E 023°05'0 0.0
2017-Nov-09 09:30N 37°55' E 023°05'0 0.0
2017-Nov-09 09:00N 37°55' E 023°05'0 0.0
2017-Nov-09 08:30N 37°55' E 023°05'0 0.0
2017-Nov-09 08:00N 37°55' E 023°05'0 0.0
2017-Nov-09 07:30N 37°55' E 023°05'0 0.0
2017-Nov-09 07:00N 37°55' E 023°05'0 0.0
2017-Nov-09 06:30N 37°55' E 023°05'0 0.0
2017-Nov-09 06:00N 37°55' E 023°05'0 0.0
2017-Nov-09 05:30N 37°55' E 023°05'0 0.0
2017-Nov-09 05:00N 37°55' E 023°05'0 0.0
2017-Nov-09 04:30N 37°55' E 023°05'0 0.0
2017-Nov-09 04:00N 37°55' E 023°05'0 0.0
2017-Nov-09 03:30N 37°55' E 023°05'0 0.0
2017-Nov-09 03:00N 37°55' E 023°05'0 0.0
2017-Nov-09 02:30N 37°55' E 023°05'0 0.0
2017-Nov-09 02:00N 37°55' E 023°05'0 0.0
2017-Nov-09 01:30N 37°55' E 023°05'0 0.0
2017-Nov-09 01:00N 37°55' E 023°05'0 0.0
2017-Nov-09 00:30N 37°55' E 023°05'0 0.0
2017-Nov-09 00:00N 37°55' E 023°05'0 0.0
2017-Nov-08 23:30N 37°55' E 023°05'0 0.0
2017-Nov-08 23:00N 37°55' E 023°05'0 0.0
2017-Nov-08 22:30N 37°55' E 023°05'0 0.6
2017-Nov-08 22:01N 37°55' E 023°05'1 1.2
2017-Nov-08 21:30N 37°54' E 023°05'0 0.0
2017-Nov-08 21:00N 37°54' E 023°05'0 0.0
2017-Nov-08 20:30N 37°54' E 023°05'0 0.0
2017-Nov-08 20:00N 37°54' E 023°05'0 0.0
2017-Nov-08 19:30N 37°54' E 023°05'0 0.1
2017-Nov-08 19:00N 37°54' E 023°05'0 0.0
2017-Nov-08 18:30N 37°54' E 023°05'0 0.0
2017-Nov-08 18:00N 37°54' E 023°05'0 0.0
2017-Nov-08 17:30N 37°54' E 023°05'0 0.0
2017-Nov-08 17:00N 37°54' E 023°05'0 0.0
2017-Nov-08 16:30N 37°54' E 023°05'0 0.0
2017-Nov-08 16:00N 37°54' E 023°05'0 0.0
2017-Nov-08 15:30N 37°54' E 023°05'0 0.0
2017-Nov-08 15:00N 37°54' E 023°05'0 0.0
2017-Nov-08 14:30N 37°54' E 023°05'0 0.0
2017-Nov-08 14:00N 37°54' E 023°05'0 0.4
2017-Nov-08 13:30N 37°54' E 023°05'510.0
2017-Nov-08 13:00N 37°55' E 023°11'510.3
2017-Nov-08 12:30N 37°56' E 023°18'510.2
2017-Nov-08 12:01N 37°57' E 023°24'3 6.9
2017-Nov-08 11:30N 37°60' E 023°27'5 9.9
2017-Nov-08 11:01N 38°02' E 023°32'0 0.2
2017-Nov-08 10:30N 38°02' E 023°32'0 0.0
2017-Nov-08 10:00N 38°02' E 023°32'0 0.0
2017-Nov-08 09:30N 38°02' E 023°32'  
Track history (hours):
 
Tides and Currents Weather Stations Pressure Air Temp Water Temp Dewpoint Dewpoint Depression Visibility Wind Speed Wind Dir Waves Ship Positions

Zefyros

Last reported at 2017-Nov-18 09:04 UTC. Time now 2017-Nov-19 15:49 UTC.
Position N 37°14' E 024°48'.

Length 77 m; draft 4.5 m.

Type: Ship. MMSI: 240485000.

Date/timePositionNaut miles runAvg speedWind from/ knotsBaromVisibWave heightAir tempDewpointWater temp
2017-Nov-18 09:04N 37°14' E 024°48'111.1
2017-Nov-18 09:01N 37°14' E 024°49'510.8
2017-Nov-18 08:31N 37°18' E 024°53'611.2
2017-Nov-18 08:01N 37°22' E 024°58'4 7.5
2017-Nov-18 07:30N 37°26' E 024°56'0 0.2
2017-Nov-18 07:00N 37°26' E 024°56'0 0.0
2017-Nov-18 06:31N 37°26' E 024°56'0 0.0
2017-Nov-18 06:00N 37°26' E 024°56'0 0.0
2017-Nov-18 05:30N 37°26' E 024°56'0 0.0
2017-Nov-18 05:01N 37°26' E 024°56'0 0.0
2017-Nov-18 04:30N 37°26' E 024°56'0 0.0
2017-Nov-18 04:01N 37°26' E 024°56'0 0.0
2017-Nov-18 03:31N 37°26' E 024°56'0 0.0
2017-Nov-18 03:00N 37°26' E 024°56'0 0.0
2017-Nov-18 02:30N 37°26' E 024°56'0 0.0
2017-Nov-18 02:01N 37°26' E 024°56'0 0.0
2017-Nov-18 01:31N 37°26' E 024°56'0 0.0
2017-Nov-18 01:00N 37°26' E 024°56'0 0.0
2017-Nov-18 00:31N 37°26' E 024°56'0 0.0
2017-Nov-18 00:00N 37°26' E 024°56'0 0.0
2017-Nov-17 23:31N 37°26' E 024°56'0 0.0
2017-Nov-17 23:01N 37°26' E 024°56'0 0.0
2017-Nov-17 22:31N 37°26' E 024°56'0 0.0
2017-Nov-17 22:00N 37°26' E 024°56'0 0.0
2017-Nov-17 21:31N 37°26' E 024°56'0 0.0
2017-Nov-17 21:00N 37°26' E 024°56'0 0.0
2017-Nov-17 20:31N 37°26' E 024°56'0 0.0
2017-Nov-17 20:01N 37°26' E 024°56'0 0.0
2017-Nov-17 19:31N 37°26' E 024°56'0 0.0
2017-Nov-17 19:01N 37°26' E 024°56'0 0.0
2017-Nov-17 18:30N 37°26' E 024°56'0 0.0
2017-Nov-17 18:01N 37°26' E 024°56'0 0.0
2017-Nov-17 17:30N 37°26' E 024°56'0 0.0
2017-Nov-17 17:01N 37°26' E 024°56'0 0.0
2017-Nov-17 16:30N 37°26' E 024°56'0 0.0
2017-Nov-17 16:01N 37°26' E 024°56'0 0.0
2017-Nov-17 15:30N 37°26' E 024°56'0 0.0
2017-Nov-17 15:01N 37°26' E 024°56'0 0.0
2017-Nov-17 14:26N 37°26' E 024°56'0 0.0
2017-Nov-17 14:00N 37°26' E 024°56'0 0.0
2017-Nov-17 13:30N 37°26' E 024°56'0 0.0
2017-Nov-17 12:59N 37°26' E 024°56'0 0.0
2017-Nov-17 12:30N 37°26' E 024°56'3 6.3
2017-Nov-17 12:01N 37°29' E 024°58'510.2
2017-Nov-17 11:31N 37°34' E 024°55'510.8
2017-Nov-17 11:00N 37°38' E 024°52'83 4.4
2017-Nov-16 16:10N 38°55' E 024°09'3 9.8
2017-Nov-16 15:52N 38°57' E 024°07'32 1.4
2017-Nov-15 16:52N 39°27' E 023°54'410.6
2017-Nov-15 16:30N 39°30' E 023°59'510.7
2017-Nov-15 16:00N 39°33' E 024°04'510.9
2017-Nov-15 15:30N 39°35' E 024°10'2511.3
2017-Nov-15 13:17N 39°45' E 024°41'311.3
2017-Nov-15 13:00N 39°46' E 024°44'611.2
2017-Nov-15 12:26N 39°49' E 024°52'611.2
2017-Nov-15 11:55N 39°51' E 024°59'  
2017-Nov-11 00:21N 37°24' E 025°55'411.1
2017-Nov-11 00:00N 37°25' E 025°51'611.5
2017-Nov-10 23:30N 37°26' E 025°43'611.7
2017-Nov-10 23:00N 37°28' E 025°37'611.9
2017-Nov-10 22:30N 37°30' E 025°29'612.1
2017-Nov-10 22:00N 37°31' E 025°22'4 8.7
2017-Nov-10 21:31N 37°28' E 025°18'1 2.3
2017-Nov-10 21:00N 37°28' E 025°19'0 0.0
2017-Nov-10 20:30N 37°28' E 025°19'0 0.0
2017-Nov-10 20:00N 37°28' E 025°19'0 0.0
2017-Nov-10 19:30N 37°28' E 025°19'0 0.0
2017-Nov-10 19:00N 37°28' E 025°19'0 0.0
2017-Nov-10 18:30N 37°28' E 025°19'0 0.0
2017-Nov-10 18:00N 37°28' E 025°19'0 0.0
2017-Nov-10 17:30N 37°28' E 025°19'0 0.0
2017-Nov-10 17:00N 37°28' E 025°19'0 0.0
2017-Nov-10 16:30N 37°28' E 025°19'0 0.0
2017-Nov-10 16:00N 37°28' E 025°19'0 0.0
2017-Nov-10 15:30N 37°28' E 025°19'0 0.0
2017-Nov-10 15:00N 37°28' E 025°19'0 0.0
2017-Nov-10 14:30N 37°28' E 025°19'2 4.9
2017-Nov-10 14:00N 37°28' E 025°16'611.4
2017-Nov-10 13:30N 37°29' E 025°09'611.2
2017-Nov-10 13:00N 37°31' E 025°02'510.6
2017-Nov-10 12:30N 37°32' E 024°56'510.2
2017-Nov-10 12:00N 37°32' E 024°50'4410.7
2017-Nov-10 07:51N 37°36' E 023°54'411.2
2017-Nov-10 07:30N 37°37' E 023°49'611.0
2017-Nov-10 07:00N 37°40' E 023°43'510.8
2017-Nov-10 06:30N 37°44' E 023°39'611.2
2017-Nov-10 06:00N 37°49' E 023°36'611.0
2017-Nov-10 05:30N 37°50' E 023°29'611.2
2017-Nov-10 05:00N 37°52' E 023°22'611.3
2017-Nov-10 04:30N 37°53' E 023°15'611.3
2017-Nov-10 04:00N 37°54' E 023°08'3 5.3
2017-Nov-10 03:30N 37°55' E 023°05'0 0.0
2017-Nov-10 03:00N 37°55' E 023°05'0 0.0
2017-Nov-10 02:30N 37°55' E 023°05'0 0.0
2017-Nov-10 02:00N 37°55' E 023°05'0 0.0
2017-Nov-10 01:30N 37°55' E 023°05'0 0.0
2017-Nov-10 01:00N 37°55' E 023°05'0 0.0
2017-Nov-10 00:30N 37°55' E 023°05'0 0.0
2017-Nov-10 00:00N 37°55' E 023°05'0 0.0
2017-Nov-09 23:30N 37°55' E 023°05'0 0.0
2017-Nov-09 23:00N 37°55' E 023°05'0 0.0
2017-Nov-09 22:30N 37°55' E 023°05'0 0.0
2017-Nov-09 22:00N 37°55' E 023°05'0 0.0
2017-Nov-09 21:30N 37°55' E 023°05'0 0.0
2017-Nov-09 21:00N 37°55' E 023°05'0 0.0
2017-Nov-09 20:30N 37°55' E 023°05'0 0.0
2017-Nov-09 20:00N 37°55' E 023°05'0 0.0
2017-Nov-09 19:30N 37°55' E 023°05'0 0.0
2017-Nov-09 19:00N 37°55' E 023°05'0 0.0
2017-Nov-09 18:30N 37°55' E 023°05'0 0.0
2017-Nov-09 18:00N 37°55' E 023°05'0 0.0
2017-Nov-09 17:30N 37°55' E 023°05'0 0.0
2017-Nov-09 17:00N 37°55' E 023°05'0 0.0
2017-Nov-09 16:30N 37°55' E 023°05'0 0.0
2017-Nov-09 16:00N 37°55' E 023°05'0 0.0
2017-Nov-09 15:30N 37°55' E 023°05'0 0.0
2017-Nov-09 15:00N 37°55' E 023°05'0 0.0
2017-Nov-09 14:30N 37°55' E 023°05'0 0.0
2017-Nov-09 14:00N 37°55' E 023°05'0 0.0
2017-Nov-09 13:30N 37°55' E 023°05'0 0.0
2017-Nov-09 13:00N 37°55' E 023°05'0 0.0
2017-Nov-09 12:30N 37°55' E 023°05'0 0.0
2017-Nov-09 12:00N 37°55' E 023°05'0 0.0
2017-Nov-09 11:30N 37°55' E 023°05'0 0.0
2017-Nov-09 11:00N 37°55' E 023°05'0 0.0
2017-Nov-09 10:30N 37°55' E 023°05'0 0.0
2017-Nov-09 10:00N 37°55' E 023°05'0 0.0
2017-Nov-09 09:30N 37°55' E 023°05'0 0.0
2017-Nov-09 09:00N 37°55' E 023°05'0 0.0
2017-Nov-09 08:30N 37°55' E 023°05'0 0.0
2017-Nov-09 08:00N 37°55' E 023°05'0 0.0
2017-Nov-09 07:30N 37°55' E 023°05'0 0.0
2017-Nov-09 07:00N 37°55' E 023°05'0 0.0
2017-Nov-09 06:30N 37°55' E 023°05'0 0.0
2017-Nov-09 06:00N 37°55' E 023°05'0 0.0
2017-Nov-09 05:30N 37°55' E 023°05'0 0.0
2017-Nov-09 05:00N 37°55' E 023°05'0 0.0
2017-Nov-09 04:30N 37°55' E 023°05'0 0.0
2017-Nov-09 04:00N 37°55' E 023°05'0 0.0
2017-Nov-09 03:30N 37°55' E 023°05'0 0.0
2017-Nov-09 03:00N 37°55' E 023°05'0 0.0
2017-Nov-09 02:30N 37°55' E 023°05'0 0.0
2017-Nov-09 02:00N 37°55' E 023°05'0 0.0
2017-Nov-09 01:30N 37°55' E 023°05'0 0.0
2017-Nov-09 01:00N 37°55' E 023°05'0 0.0
2017-Nov-09 00:30N 37°55' E 023°05'0 0.0
2017-Nov-09 00:00N 37°55' E 023°05'0 0.0
2017-Nov-08 23:30N 37°55' E 023°05'0 0.0
2017-Nov-08 23:00N 37°55' E 023°05'0 0.0
2017-Nov-08 22:30N 37°55' E 023°05'0 0.6
2017-Nov-08 22:01N 37°55' E 023°05'1 1.2
2017-Nov-08 21:30N 37°54' E 023°05'0 0.0
2017-Nov-08 21:00N 37°54' E 023°05'0 0.0
2017-Nov-08 20:30N 37°54' E 023°05'0 0.0
2017-Nov-08 20:00N 37°54' E 023°05'0 0.0
2017-Nov-08 19:30N 37°54' E 023°05'0 0.1
2017-Nov-08 19:00N 37°54' E 023°05'0 0.0
2017-Nov-08 18:30N 37°54' E 023°05'0 0.0
2017-Nov-08 18:00N 37°54' E 023°05'0 0.0
2017-Nov-08 17:30N 37°54' E 023°05'0 0.0
2017-Nov-08 17:00N 37°54' E 023°05'0 0.0
2017-Nov-08 16:30N 37°54' E 023°05'0 0.0
2017-Nov-08 16:00N 37°54' E 023°05'0 0.0
2017-Nov-08 15:30N 37°54' E 023°05'0 0.0
2017-Nov-08 15:00N 37°54' E 023°05'0 0.0
2017-Nov-08 14:30N 37°54' E 023°05'0 0.0
2017-Nov-08 14:00N 37°54' E 023°05'0 0.4
2017-Nov-08 13:30N 37°54' E 023°05'510.0
2017-Nov-08 13:00N 37°55' E 023°11'510.3
2017-Nov-08 12:30N 37°56' E 023°18'510.2
2017-Nov-08 12:01N 37°57' E 023°24'3 6.9
2017-Nov-08 11:30N 37°60' E 023°27'5 9.9
2017-Nov-08 11:01N 38°02' E 023°32'0 0.2
2017-Nov-08 10:30N 38°02' E 023°32'0 0.0
2017-Nov-08 10:00N 38°02' E 023°32'0 0.0
2017-Nov-08 09:30N 38°02' E 023°32'  

Dump ship's entire track history